Time;durP1;ratioP1;P1;durP2;ratioP2;P2;SDS_P1;SDS_P2;PMS_P1;PMS_P2;Temp;Humidity;BMP_temperature;BMP_pressure;BME280_temperature;BME280_humidity;BME280_pressure;Samples;Min_cycle;Max_cycle;Signal;HPM_P1;HPM_P2
2023/06/13 00:02:16;;;;;;;5.75;3.95;;;;;;;22.29;45.43;101397.22;4963610;28;20070;-66
2023/06/13 00:04:43;;;;;;;5.70;4.30;;;;;;;22.24;45.40;101393.50;4975686;28;20046;-66
2023/06/13 00:07:09;;;;;;;7.55;4.40;;;;;;;22.19;45.87;101393.31;4971131;28;20047;-68
2023/06/13 00:09:36;;;;;;;9.60;4.10;;;;;;;22.18;45.66;101392.50;4971174;28;20074;-66
2023/06/13 00:12:03;;;;;;;7.93;4.10;;;;;;;22.08;46.21;101398.25;4971941;28;20476;-66
2023/06/13 00:14:30;;;;;;;5.78;4.18;;;;;;;22.00;45.97;101392.34;4961989;28;20086;-67
2023/06/13 00:16:58;;;;;;;7.22;4.10;;;;;;;21.95;46.51;101397.47;4980328;28;20785;-67
2023/06/13 00:19:25;;;;;;;6.93;4.00;;;;;;;21.89;46.79;101399.13;4964511;28;20103;-66
2023/06/13 00:21:51;;;;;;;6.68;4.35;;;;;;;21.84;46.66;101393.59;4964304;28;20062;-68
2023/06/13 00:24:18;;;;;;;7.15;4.32;;;;;;;21.83;46.78;101397.28;4965206;28;20066;-66
2023/06/13 00:26:44;;;;;;;6.88;3.85;;;;;;;21.80;47.03;101392.38;4978380;28;20500;-66
2023/06/13 00:29:11;;;;;;;10.00;4.40;;;;;;;21.78;46.83;101397.06;4961570;28;20113;-66
2023/06/13 00:31:37;;;;;;;8.90;4.15;;;;;;;21.75;46.80;101386.81;4969071;28;20475;-67
2023/06/13 00:34:04;;;;;;;7.22;4.28;;;;;;;21.69;47.02;101385.78;4978640;28;20072;-66
2023/06/13 00:36:34;;;;;;;7.43;4.00;;;;;;;21.67;47.02;101398.53;4957186;28;20051;-67
2023/06/13 00:39:00;;;;;;;7.10;3.65;;;;;;;21.64;47.47;101393.59;4966853;28;20055;-67
2023/06/13 00:41:31;;;;;;;5.68;4.45;;;;;;;21.59;47.44;101394.22;4960804;28;20526;-68
2023/06/13 00:43:58;;;;;;;12.55;4.53;;;;;;;21.57;47.66;101398.13;4966922;28;20157;-67
2023/06/13 00:46:34;;;;;;;5.90;3.90;;;;;;;21.57;47.65;101400.78;4970438;28;20392;-66
2023/06/13 00:49:02;;;;;;;6.85;4.20;;;;;;;21.53;47.60;101397.72;4952355;28;20433;-67
2023/06/13 00:51:31;;;;;;;6.93;4.00;;;;;;;21.52;47.52;101396.06;4961399;28;20488;-66
2023/06/13 00:54:01;;;;;;;9.00;3.95;;;;;;;21.49;47.59;101394.63;4960573;28;20054;-67
2023/06/13 00:56:29;;;;;;;6.30;4.13;;;;;;;21.44;47.85;101399.75;4973311;28;20125;-67
2023/06/13 00:58:59;;;;;;;6.53;4.38;;;;;;;21.42;47.73;101398.28;4964445;28;20137;-66
2023/06/13 01:01:27;;;;;;;4.95;3.75;;;;;;;21.40;47.42;101395.00;4973166;28;20051;-67
2023/06/13 01:03:55;;;;;;;7.57;4.57;;;;;;;21.27;48.14;101393.16;4960672;28;20043;-67
2023/06/13 01:06:24;;;;;;;8.52;4.60;;;;;;;21.23;48.11;101382.06;4960805;28;20043;-67
2023/06/13 01:08:53;;;;;;;5.65;4.28;;;;;;;21.17;48.58;101390.88;4965766;28;20113;-67
2023/06/13 01:11:50;;;;;;;8.10;3.95;;;;;;;21.11;48.46;101381.84;4960451;28;20109;-67
2023/06/13 01:14:30;;;;;;;9.68;4.15;;;;;;;21.04;49.05;101390.84;4969042;28;20644;-67
2023/06/13 01:17:12;;;;;;;10.77;4.18;;;;;;;20.96;49.39;101380.38;4958033;28;20098;-67
2023/06/13 01:19:47;;;;;;;6.85;4.20;;;;;;;20.84;49.48;101380.13;4946865;28;20097;-68
2023/06/13 01:22:20;;;;;;;7.45;4.28;;;;;;;20.73;49.58;101381.53;4950149;28;20636;-67
2023/06/13 01:25:28;;;;;;;6.43;4.35;;;;;;;20.71;49.78;101376.38;4968168;28;20089;-67
2023/06/13 01:27:57;;;;;;;8.05;3.67;;;;;;;20.74;48.79;101383.19;4963040;28;20050;-67
2023/06/13 01:30:26;;;;;;;5.40;4.22;;;;;;;20.72;49.57;101380.72;4944334;28;20057;-67
2023/06/13 01:32:54;;;;;;;9.38;3.85;;;;;;;20.72;49.25;101377.22;4959335;28;20050;-67
2023/06/13 01:35:23;;;;;;;8.05;4.50;;;;;;;20.72;49.11;101378.03;4964986;28;20109;-67
2023/06/13 01:37:50;;;;;;;7.78;4.28;;;;;;;20.72;48.92;101382.56;4967389;28;20043;-67
2023/06/13 01:40:17;;;;;;;5.32;4.05;;;;;;;20.70;48.82;101377.44;4963284;28;20145;-67
2023/06/13 01:42:43;;;;;;;6.57;3.80;;;;;;;20.69;48.76;101378.44;4972493;28;20043;-67
2023/06/13 01:45:10;;;;;;;8.98;4.80;;;;;;;20.69;48.95;101378.44;4955535;28;20086;-67
2023/06/13 01:47:43;;;;;;;6.47;4.20;;;;;;;20.68;48.84;101376.81;4966887;28;20133;-66
2023/06/13 01:51:03;;;;;;;8.07;4.82;;;;;;;20.60;49.40;101379.66;4963510;28;20050;-67
2023/06/13 01:53:36;;;;;;;7.18;4.57;;;;;;;20.53;49.88;101381.41;4950836;28;20054;-67
2023/06/13 01:56:08;;;;;;;9.80;4.63;;;;;;;20.53;49.48;101374.25;4961564;28;20117;-67
2023/06/13 01:58:39;;;;;;;7.93;4.13;;;;;;;20.49;49.69;101380.19;4964157;28;20046;-67
2023/06/13 02:01:07;;;;;;;7.90;4.40;;;;;;;20.47;49.59;101374.22;4950755;28;20051;-67
2023/06/13 02:03:34;;;;;;;9.60;4.25;;;;;;;20.43;49.74;101379.13;4963225;28;20050;-67
2023/06/13 02:06:01;;;;;;;8.63;4.78;;;;;;;20.39;49.24;101377.88;4975329;28;20050;-67
2023/06/13 02:08:28;;;;;;;7.90;4.38;;;;;;;20.31;49.92;101378.06;4980944;28;20068;-67
2023/06/13 02:10:54;;;;;;;6.22;4.15;;;;;;;20.25;49.93;101377.00;4968471;28;20110;-68
2023/06/13 02:13:22;;;;;;;9.98;4.57;;;;;;;20.23;49.89;101383.50;4962968;28;20046;-67
2023/06/13 02:15:48;;;;;;;7.68;4.43;;;;;;;20.20;50.11;101381.25;4966642;28;20067;-67
2023/06/13 02:18:15;;;;;;;5.88;4.60;;;;;;;20.13;50.46;101378.53;4962315;28;20134;-68
2023/06/13 02:20:42;;;;;;;6.07;4.25;;;;;;;20.14;50.17;101380.19;4966325;28;20050;-67
2023/06/13 02:23:09;;;;;;;7.28;4.43;;;;;;;20.13;50.21;101375.88;4977722;28;20461;-67
2023/06/13 02:25:35;;;;;;;10.57;4.55;;;;;;;20.15;49.73;101381.88;4962766;28;20061;-67
2023/06/13 02:28:02;;;;;;;7.85;4.45;;;;;;;20.13;49.92;101373.22;4966572;28;20078;-67
2023/06/13 02:30:29;;;;;;;8.52;5.30;;;;;;;20.09;50.00;101378.13;4961406;28;20050;-67
2023/06/13 02:32:55;;;;;;;8.55;5.75;;;;;;;20.05;50.03;101376.03;4967027;28;20067;-67
2023/06/13 02:35:23;;;;;;;7.25;5.28;;;;;;;19.99;50.27;101380.31;4948506;28;20082;-67
2023/06/13 02:37:53;;;;;;;;;;;;;;;19.99;50.57;101380.31;4966790;28;20043;-67
2023/06/13 02:40:20;;;;;;;7.93;4.10;;;;;;;19.98;50.51;101377.84;4962834;28;20462;-67
2023/06/13 02:42:48;;;;;;;11.57;5.20;;;;;;;19.90;50.87;101389.47;4960851;28;20058;-67
2023/06/13 02:45:18;;;;;;;10.27;4.85;;;;;;;19.83;50.86;101384.09;4968125;28;20758;-67
2023/06/13 02:47:45;;;;;;;9.30;4.65;;;;;;;19.81;50.57;101382.66;4962037;28;20047;-67
2023/06/13 02:50:12;;;;;;;7.68;4.50;;;;;;;19.79;50.60;101385.50;4951668;28;20397;-67
2023/06/13 02:52:39;;;;;;;9.38;5.00;;;;;;;19.73;50.82;101386.28;4965486;28;20038;-67
2023/06/13 02:55:07;;;;;;;6.10;4.38;;;;;;;19.69;51.08;101377.00;4961987;28;20051;-67
2023/06/13 02:57:36;;;;;;;8.57;4.78;;;;;;;19.61;51.14;101377.16;4969374;28;20117;-67
2023/06/13 03:00:08;;;;;;;9.98;4.88;;;;;;;19.60;51.45;101372.81;4962250;28;20106;-66
2023/06/13 03:02:38;;;;;;;5.38;4.10;;;;;;;19.61;51.20;101385.94;4965382;28;20140;-67
2023/06/13 03:05:09;;;;;;;7.82;4.00;;;;;;;19.62;51.09;101384.94;4963626;28;20628;-67
2023/06/13 03:07:36;;;;;;;8.02;4.25;;;;;;;19.59;51.22;101387.16;4965067;28;20051;-67
2023/06/13 03:10:04;;;;;;;7.20;4.50;;;;;;;19.57;51.40;101384.69;4957853;28;20074;-67
2023/06/13 03:12:30;;;;;;;8.97;4.70;;;;;;;19.56;51.13;101383.88;4969375;28;20061;-67
2023/06/13 03:14:57;;;;;;;7.68;4.30;;;;;;;19.54;51.55;101383.25;4974788;28;20117;-67
2023/06/13 03:17:23;;;;;;;11.32;4.38;;;;;;;19.51;51.22;101391.59;4960811;28;20051;-67
2023/06/13 03:19:50;;;;;;;6.60;4.22;;;;;;;19.45;51.77;101392.38;4974594;28;20078;-67
2023/06/13 03:22:29;;;;;;;7.57;4.57;;;;;;;19.42;51.52;101389.25;4956943;28;20105;-67
2023/06/13 03:24:56;;;;;;;7.38;5.05;;;;;;;19.35;51.39;101387.38;4966443;28;20050;-67
2023/06/13 03:27:23;;;;;;;7.38;5.03;;;;;;;19.38;51.48;101390.66;4965735;28;20051;-67
2023/06/13 03:29:49;;;;;;;8.48;5.15;;;;;;;19.35;51.56;101389.22;4965407;28;20051;-67
2023/06/13 03:32:16;;;;;;;7.18;4.97;;;;;;;19.35;51.34;101394.53;4971489;28;20083;-67
2023/06/13 03:34:43;;;;;;;6.40;4.60;;;;;;;19.35;51.22;101384.72;4965232;28;20059;-67
2023/06/13 03:37:09;;;;;;;12.70;6.22;;;;;;;19.29;51.48;101395.28;4966027;28;20166;-67
2023/06/13 03:39:37;;;;;;;6.95;5.43;;;;;;;19.31;51.37;101390.59;4975672;28;20105;-67
2023/06/13 03:42:04;;;;;;;10.35;5.13;;;;;;;19.30;51.30;101394.25;4970192;28;20054;-67
2023/06/13 03:44:30;;;;;;;10.10;5.10;;;;;;;19.25;52.16;101394.84;4969928;28;20110;-67
2023/06/13 03:46:58;;;;;;;7.47;4.70;;;;;;;19.22;52.05;101395.22;4975971;28;20062;-67
2023/06/13 03:49:25;;;;;;;7.95;5.10;;;;;;;19.20;52.16;101399.09;4979010;28;20054;-67
2023/06/13 03:51:52;;;;;;;7.40;4.97;;;;;;;19.17;51.99;101394.97;4961354;28;20051;-67
2023/06/13 03:54:20;;;;;;;11.57;4.95;;;;;;;19.18;51.77;101391.28;4974980;28;20466;-67
2023/06/13 03:56:47;;;;;;;8.73;4.70;;;;;;;19.17;51.59;101385.16;4960625;28;20197;-67
2023/06/13 03:59:14;;;;;;;7.38;5.28;;;;;;;19.13;51.82;101381.22;4970720;28;20050;-67
2023/06/13 04:01:41;;;;;;;8.85;4.95;;;;;;;19.11;52.29;101390.38;4963825;28;20061;-67
2023/06/13 04:04:11;;;;;;;9.60;5.32;;;;;;;19.13;52.28;101391.88;4964125;28;20416;-67
2023/06/13 04:06:37;;;;;;;7.78;4.88;;;;;;;19.11;52.08;101399.22;4961492;28;20054;-67
2023/06/13 04:09:05;;;;;;;8.82;5.45;;;;;;;19.09;52.39;101389.75;4944562;28;20111;-67
2023/06/13 04:11:33;;;;;;;;;;;;;;;19.05;52.35;101397.31;4973309;28;20534;-67
2023/06/13 04:14:01;;;;;;;10.33;4.40;;;;;;;19.05;52.12;101396.47;4958935;28;19926;-67
2023/06/13 04:16:28;;;;;;;10.88;5.25;;;;;;;19.08;52.12;101390.78;4974923;28;20051;-68
2023/06/13 04:18:54;;;;;;;7.68;4.90;;;;;;;19.04;52.78;101400.16;4958074;28;20101;-67
2023/06/13 04:21:24;;;;;;;8.88;5.22;;;;;;;19.06;52.72;101395.47;4970937;28;20074;-67
2023/06/13 04:23:52;;;;;;;8.30;5.00;;;;;;;19.02;53.20;101387.03;4967059;28;20130;-67
2023/06/13 04:26:19;;;;;;;8.55;5.40;;;;;;;19.03;53.18;101393.97;4970491;28;20547;-66
2023/06/13 04:28:45;;;;;;;7.57;5.25;;;;;;;19.00;53.42;101397.03;4972888;28;20150;-66
2023/06/13 04:31:12;;;;;;;10.32;5.75;;;;;;;19.00;53.43;101393.56;4958903;28;20062;-66
2023/06/13 04:33:39;;;;;;;10.70;4.90;;;;;;;18.97;53.68;101397.41;4972189;28;20086;-66
2023/06/13 04:36:08;;;;;;;10.77;4.75;;;;;;;19.03;53.42;101396.66;4963208;28;20137;-66
2023/06/13 04:38:39;;;;;;;9.57;5.43;;;;;;;18.99;54.14;101400.69;4954560;28;20517;-66
2023/06/13 04:41:10;;;;;;;7.70;5.18;;;;;;;18.99;53.91;101394.56;4971145;28;20480;-66
2023/06/13 04:43:38;;;;;;;10.85;5.72;;;;;;;19.00;54.52;101390.91;4966003;28;20415;-64
2023/06/13 04:46:05;;;;;;;8.98;5.07;;;;;;;19.02;54.39;101399.50;4975174;28;20141;-66
2023/06/13 04:48:35;;;;;;;13.50;5.25;;;;;;;18.91;55.03;101396.31;4968630;28;20171;-67
2023/06/13 04:51:03;;;;;;;7.10;5.13;;;;;;;19.00;54.96;101393.56;4975880;28;20318;-66
2023/06/13 04:53:30;;;;;;;7.95;5.22;;;;;;;18.98;55.38;101398.25;4961888;28;20113;-67
2023/06/13 04:55:58;;;;;;;11.55;5.07;;;;;;;19.01;55.28;101387.22;4983994;28;20511;-67
2023/06/13 04:58:24;;;;;;;8.25;5.30;;;;;;;19.03;55.07;101388.66;4962539;28;20109;-67
2023/06/13 05:00:51;;;;;;;11.52;5.53;;;;;;;19.04;55.63;101393.00;4974645;28;20046;-66
2023/06/13 05:03:19;;;;;;;9.70;5.60;;;;;;;19.04;55.88;101394.84;4969212;28;20047;-67
2023/06/13 05:05:46;;;;;;;;;;;;;;;19.08;55.58;101394.25;4971677;28;20476;-67
2023/06/13 05:08:15;;;;;;;9.50;5.40;;;;;;;19.12;54.84;101400.03;4975847;28;19937;-67
2023/06/13 05:10:42;;;;;;;9.63;5.13;;;;;;;19.11;55.52;101409.00;4960667;28;20306;-66
2023/06/13 05:13:08;;;;;;;9.80;5.47;;;;;;;19.14;55.76;101403.31;4973322;28;20526;-67
2023/06/13 05:15:36;;;;;;;10.77;5.00;;;;;;;19.13;56.16;101414.94;4959371;28;20065;-67
2023/06/13 05:18:06;;;;;;;9.50;5.53;;;;;;;19.16;55.48;101404.75;4954349;28;20314;-66
2023/06/13 05:20:33;;;;;;;9.52;5.75;;;;;;;19.23;55.71;101411.97;4971052;28;20046;-66
2023/06/13 05:23:02;;;;;;;12.48;5.75;;;;;;;19.26;55.70;101415.09;4966244;28;20551;-66
2023/06/13 05:25:29;;;;;;;11.35;5.90;;;;;;;19.28;54.76;101423.72;4972581;28;20475;-66
2023/06/13 05:27:56;;;;;;;8.30;5.30;;;;;;;19.26;55.77;101415.09;4959703;28;20146;-67
2023/06/13 05:30:22;;;;;;;10.20;5.90;;;;;;;19.34;55.25;101417.63;4969080;28;20083;-66
2023/06/13 05:32:49;;;;;;;9.32;5.75;;;;;;;19.43;54.60;101423.66;4968359;28;20043;-66
2023/06/13 05:35:16;;;;;;;6.95;4.95;;;;;;;19.46;55.11;101422.44;4975319;28;20053;-66
2023/06/13 05:37:43;;;;;;;8.52;5.68;;;;;;;19.52;54.89;101421.69;4968171;28;20129;-66
2023/06/13 05:40:10;;;;;;;8.23;5.90;;;;;;;19.54;54.54;101412.50;4960986;28;20047;-66
2023/06/13 05:42:38;;;;;;;9.68;5.43;;;;;;;19.58;54.66;101420.91;4950798;28;20470;-67
2023/06/13 05:45:06;;;;;;;14.23;6.45;;;;;;;19.58;55.25;101422.75;4963058;28;20086;-66
2023/06/13 05:47:33;;;;;;;9.70;5.28;;;;;;;19.64;54.40;101411.34;4977872;28;20046;-66
2023/06/13 05:50:00;;;;;;;7.97;5.43;;;;;;;19.68;55.17;101418.78;4963420;28;20392;-66
2023/06/13 05:52:26;;;;;;;8.90;5.13;;;;;;;19.69;55.80;101423.06;4971730;28;20101;-67
2023/06/13 05:54:53;;;;;;;9.35;5.75;;;;;;;19.73;55.88;101423.53;4958557;28;20488;-67
2023/06/13 05:57:20;;;;;;;13.82;6.18;;;;;;;19.79;55.70;101414.78;4959250;28;20062;-68
2023/06/13 05:59:46;;;;;;;12.93;5.40;;;;;;;19.82;56.39;101419.72;4970703;28;20503;-67
2023/06/13 06:02:13;;;;;;;8.50;5.93;;;;;;;19.86;55.35;101414.84;4960159;28;20098;-67
2023/06/13 06:04:39;;;;;;;7.70;5.57;;;;;;;19.89;56.19;101419.75;4976289;28;20038;-66
2023/06/13 06:07:06;;;;;;;9.40;5.07;;;;;;;19.93;56.11;101423.69;4959492;28;20098;-68
2023/06/13 06:09:33;;;;;;;8.75;6.13;;;;;;;19.98;56.23;101423.13;4963963;28;20465;-66
2023/06/13 06:11:59;;;;;;;9.90;5.60;;;;;;;20.04;56.55;101427.66;4967095;28;20133;-67
2023/06/13 06:14:26;;;;;;;7.30;5.00;;;;;;;20.07;55.68;101420.13;4958081;28;20154;-67
2023/06/13 06:16:52;;;;;;;6.85;5.20;;;;;;;20.16;54.85;101428.75;4969381;28;20078;-67
2023/06/13 06:19:19;;;;;;;8.18;4.88;;;;;;;20.23;54.41;101423.47;4963754;28;20656;-67
2023/06/13 06:21:45;;;;;;;9.40;5.57;;;;;;;20.27;54.37;101419.44;4970914;28;20051;-67
2023/06/13 06:24:12;;;;;;;8.68;5.55;;;;;;;20.34;53.87;101423.75;4959870;28;20444;-68
2023/06/13 06:26:38;;;;;;;11.02;5.72;;;;;;;20.43;54.47;101416.44;4969744;28;20050;-66
2023/06/13 06:29:05;;;;;;;9.60;4.85;;;;;;;20.50;53.74;101421.78;4975782;28;20067;-67
2023/06/13 06:31:32;;;;;;;8.43;4.80;;;;;;;20.54;53.41;101423.88;4965049;28;20055;-67
2023/06/13 06:33:59;;;;;;;9.15;6.00;;;;;;;20.61;52.84;101420.44;4981569;28;20133;-68
2023/06/13 06:36:25;;;;;;;10.43;5.43;;;;;;;20.65;53.41;101421.69;4958703;28;20069;-67
2023/06/13 06:38:52;;;;;;;9.93;5.97;;;;;;;20.69;53.80;101420.25;4970567;28;20253;-67
2023/06/13 06:41:18;;;;;;;9.02;5.20;;;;;;;20.77;53.50;101422.75;4962990;28;20523;-67
2023/06/13 06:43:45;;;;;;;11.73;5.35;;;;;;;20.79;53.38;101426.03;4962824;28;20417;-67
2023/06/13 06:46:11;;;;;;;7.55;4.53;;;;;;;20.86;53.24;101432.22;4965453;28;20059;-67
2023/06/13 06:48:38;;;;;;;6.70;4.47;;;;;;;20.89;53.47;101428.34;4942849;28;20054;-67
2023/06/13 06:51:05;;;;;;;11.23;5.18;;;;;;;20.96;52.84;101436.38;4943726;28;20705;-67
2023/06/13 06:53:31;;;;;;;9.45;5.30;;;;;;;21.06;52.46;101431.47;4941669;28;20433;-67
2023/06/13 06:55:58;;;;;;;12.00;5.03;;;;;;;21.18;52.05;101431.72;4965121;28;20137;-69
2023/06/13 06:58:24;;;;;;;8.38;5.05;;;;;;;21.25;52.61;101430.69;4967089;28;20101;-68
2023/06/13 07:00:51;;;;;;;8.48;4.63;;;;;;;21.35;52.48;101438.31;4966864;28;20054;-68
2023/06/13 07:03:20;;;;;;;10.80;4.78;;;;;;;21.40;51.73;101424.34;4945126;28;20043;-69
2023/06/13 07:05:48;;;;;;;10.73;4.90;;;;;;;21.45;52.15;101433.44;4958856;28;20051;-67
2023/06/13 07:08:14;;;;;;;7.47;4.67;;;;;;;21.53;52.10;101429.75;4957344;28;20093;-67
2023/06/13 07:10:41;;;;;;;9.13;5.03;;;;;;;21.58;52.18;101432.63;4959350;28;20043;-65
2023/06/13 07:13:08;;;;;;;8.03;4.70;;;;;;;21.65;51.72;101437.97;4973840;28;20585;-68
2023/06/13 07:15:36;;;;;;;11.23;4.67;;;;;;;21.67;51.06;101431.38;4970024;28;20054;-68
2023/06/13 07:18:03;;;;;;;6.05;4.45;;;;;;;21.75;50.77;101435.69;4948028;28;20138;-68
2023/06/13 07:20:30;;;;;;;8.38;4.88;;;;;;;21.83;50.93;101435.47;4961042;28;20121;-65
2023/06/13 07:22:57;;;;;;;6.53;4.80;;;;;;;21.90;51.09;101435.50;4947250;28;20496;-67
2023/06/13 07:25:24;;;;;;;7.25;4.80;;;;;;;21.94;51.00;101431.38;4974001;28;20046;-65
2023/06/13 07:27:50;;;;;;;8.35;4.40;;;;;;;22.00;51.15;101435.88;4964278;28;20129;-66
2023/06/13 07:30:17;;;;;;;6.30;4.60;;;;;;;22.07;50.59;101431.38;4972227;28;20081;-66
2023/06/13 07:32:43;;;;;;;12.00;5.18;;;;;;;22.16;50.17;101428.47;4959560;28;20059;-66
2023/06/13 07:35:12;;;;;;;9.10;4.57;;;;;;;22.24;49.81;101438.94;4968030;28;20046;-66
2023/06/13 07:37:38;;;;;;;10.82;4.43;;;;;;;22.30;50.03;101441.59;4965864;28;20637;-66
2023/06/13 07:40:07;;;;;;;7.72;4.60;;;;;;;22.38;50.37;101440.56;4965907;28;20055;-67
2023/06/13 07:42:35;;;;;;;6.75;4.43;;;;;;;22.42;49.75;101439.09;4968991;28;20051;-66
2023/06/13 07:45:01;;;;;;;7.43;4.60;;;;;;;22.51;49.90;101431.69;4960852;28;20560;-68
2023/06/13 07:47:27;;;;;;;10.55;4.80;;;;;;;22.56;49.24;101429.22;4968596;28;20570;-67
2023/06/13 07:49:54;;;;;;;7.78;4.43;;;;;;;22.68;49.43;101443.56;4968124;28;20554;-65
2023/06/13 07:52:20;;;;;;;7.45;4.10;;;;;;;22.79;48.72;101431.38;4967116;28;20053;-67
2023/06/13 07:54:47;;;;;;;10.13;4.70;;;;;;;22.87;47.96;101436.50;4970310;28;20461;-66
2023/06/13 07:57:13;;;;;;;11.32;4.60;;;;;;;22.95;47.67;101432.72;4963992;28;20071;-65
2023/06/13 08:00:00;;;;;;;7.30;4.65;;;;;;;23.03;46.82;101432.53;4967712;28;20054;-66
2023/06/13 08:02:26;;;;;;;7.03;4.13;;;;;;;23.14;47.50;101432.88;4963196;28;20142;-66
2023/06/13 08:04:53;;;;;;;8.63;4.50;;;;;;;23.20;47.88;101430.16;4972522;28;20109;-66
2023/06/13 08:07:21;;;;;;;5.95;4.32;;;;;;;23.26;47.31;101418.59;4963397;28;20051;-66
2023/06/13 08:09:48;;;;;;;8.93;3.95;;;;;;;23.38;46.89;101423.25;4950866;28;20051;-68
2023/06/13 08:12:15;;;;;;;8.32;4.78;;;;;;;23.44;46.46;101423.22;4961906;28;20059;-67
2023/06/13 08:14:41;;;;;;;6.30;4.25;;;;;;;23.51;46.63;101415.13;4964700;28;20051;-66
2023/06/13 08:17:08;;;;;;;9.02;4.55;;;;;;;23.60;45.87;101424.53;4977116;28;20047;-66
2023/06/13 08:19:34;;;;;;;6.70;4.10;;;;;;;23.71;45.61;101416.81;4962943;28;20468;-68
2023/06/13 08:22:01;;;;;;;8.60;3.92;;;;;;;23.83;45.88;101417.75;4970333;28;20050;-65
2023/06/13 08:24:27;;;;;;;10.02;4.32;;;;;;;24.00;46.36;101426.06;4959539;28;20467;-66
2023/06/13 08:26:54;;;;;;;6.60;4.20;;;;;;;24.14;45.51;101416.03;4952690;28;20835;-66
2023/06/13 08:29:23;;;;;;;10.05;4.43;;;;;;;24.36;45.60;101425.25;4967776;28;20078;-66
2023/06/13 08:31:50;;;;;;;4.95;4.25;;;;;;;24.62;44.44;101423.34;4963965;28;20596;-66
2023/06/13 08:34:16;;;;;;;7.43;4.60;;;;;;;24.98;43.95;101422.47;4971914;28;20057;-68
2023/06/13 08:36:43;;;;;;;8.85;4.65;;;;;;;25.35;42.58;101426.91;4943117;28;20484;-66
2023/06/13 08:39:09;;;;;;;6.35;4.22;;;;;;;25.71;42.87;101431.28;4965332;28;20067;-67
2023/06/13 08:41:37;;;;;;;8.55;4.20;;;;;;;26.19;41.53;101421.38;4957174;28;20057;-66
2023/06/13 08:44:04;;;;;;;5.22;4.60;;;;;;;26.60;40.76;101412.28;4953299;28;20049;-68
2023/06/13 08:46:33;;;;;;;7.60;4.43;;;;;;;26.95;40.01;101411.34;4973236;28;20136;-67
2023/06/13 08:49:00;;;;;;;12.13;4.50;;;;;;;27.35;39.25;101407.75;4966415;28;20055;-65
2023/06/13 08:51:30;;;;;;;8.35;4.05;;;;;;;27.74;38.34;101410.50;4974792;28;20062;-65
2023/06/13 08:54:00;;;;;;;9.35;4.00;;;;;;;28.09;38.87;101419.34;4959012;28;20503;-66
2023/06/13 08:56:28;;;;;;;6.80;4.30;;;;;;;28.37;36.78;101410.28;4974379;28;20062;-66
2023/06/13 08:59:03;;;;;;;6.50;4.40;;;;;;;28.68;36.59;101407.97;4953667;28;20081;-68
2023/06/13 09:01:31;;;;;;;9.05;4.57;;;;;;;28.99;36.27;101400.97;4963757;28;20118;-66
2023/06/13 09:03:59;;;;;;;8.75;4.35;;;;;;;29.24;36.12;101413.13;4968920;28;20039;-67
2023/06/13 09:06:26;;;;;;;7.18;4.10;;;;;;;29.47;35.33;101404.66;4967726;28;20133;-68
2023/06/13 09:08:55;;;;;;;8.32;4.18;;;;;;;29.68;35.14;101400.22;4964085;28;20050;-67
2023/06/13 09:11:22;;;;;;;9.77;4.80;;;;;;;29.85;34.89;101397.34;4954842;28;20054;-66
2023/06/13 09:13:50;;;;;;;5.30;4.20;;;;;;;30.08;34.50;101400.72;4967771;28;20046;-67
2023/06/13 09:16:17;;;;;;;8.50;4.13;;;;;;;30.26;35.16;101399.44;4969859;28;20073;-65
2023/06/13 09:18:44;;;;;;;7.57;3.95;;;;;;;30.43;33.39;101397.38;4969367;28;20043;-69
2023/06/13 09:21:11;;;;;;;6.30;3.80;;;;;;;30.57;33.00;101392.25;4956331;28;20090;-66
2023/06/13 09:23:39;;;;;;;9.68;4.50;;;;;;;30.68;32.95;101398.53;4966022;28;20050;-65
2023/06/13 09:26:06;;;;;;;7.55;4.22;;;;;;;30.80;33.99;101393.66;4969280;28;20059;-66
2023/06/13 09:28:37;;;;;;;7.00;3.93;;;;;;;30.89;31.47;101396.69;4967521;28;20046;-65
2023/06/13 09:31:04;;;;;;;6.90;3.47;;;;;;;31.13;31.31;101381.53;4969043;28;20281;-66
2023/06/13 09:33:39;;;;;;;6.00;3.58;;;;;;;31.28;31.26;101383.41;4952096;28;20053;-65
2023/06/13 09:36:06;;;;;;;4.97;3.65;;;;;;;31.44;30.60;101388.81;4967414;28;20063;-66
2023/06/13 09:38:35;;;;;;;10.25;4.10;;;;;;;31.57;30.33;101380.16;4968033;28;20474;-67
2023/06/13 09:41:06;;;;;;;6.68;3.90;;;;;;;31.73;32.05;101380.94;4967987;28;20062;-66
2023/06/13 09:43:33;;;;;;;10.82;3.95;;;;;;;31.84;31.00;101387.94;4971046;28;20097;-66
2023/06/13 09:46:01;;;;;;;7.37;3.87;;;;;;;31.83;30.02;101386.31;4962864;28;20078;-67
2023/06/13 09:48:27;;;;;;;7.53;4.10;;;;;;;31.83;30.01;101377.38;4961167;28;20046;-69
2023/06/13 09:50:54;;;;;;;4.60;3.85;;;;;;;31.99;32.17;101378.13;4961360;28;20053;-66
2023/06/13 09:53:21;;;;;;;5.82;4.00;;;;;;;32.04;30.06;101375.44;4950887;28;20047;-67
2023/06/13 09:55:49;;;;;;;4.50;3.47;;;;;;;32.17;31.12;101380.28;4969385;28;20050;-66
2023/06/13 09:58:15;;;;;;;7.82;4.30;;;;;;;32.18;29.78;101378.34;4957551;28;20139;-66
2023/06/13 10:00:59;;;;;;;8.25;3.88;;;;;;;32.16;29.30;101370.50;4960531;28;20129;-66
2023/06/13 10:03:27;;;;;;;;;;;;;;;32.30;29.22;101371.53;4961508;28;20047;-69
2023/06/13 10:05:54;;;;;;;4.88;3.83;;;;;;;32.34;29.10;101374.47;4968849;28;19926;-66
2023/06/13 10:08:20;;;;;;;5.43;4.03;;;;;;;32.48;29.18;101377.38;4955952;28;20055;-66
2023/06/13 10:10:47;;;;;;;7.32;3.58;;;;;;;32.75;29.32;101376.16;4963515;28;20589;-65
2023/06/13 10:13:18;;;;;;;6.55;3.65;;;;;;;32.82;29.20;101380.19;4963694;28;20466;-65
2023/06/13 10:15:51;;;;;;;9.20;4.90;;;;;;;32.82;28.73;101373.94;4966022;28;20047;-66
2023/06/13 10:18:24;;;;;;;5.85;4.70;;;;;;;32.90;28.64;101368.69;4967618;28;20499;-65
2023/06/13 10:20:54;;;;;;;5.38;4.30;;;;;;;33.00;29.29;101370.53;4967007;28;20428;-67
2023/06/13 10:23:21;;;;;;;6.63;4.53;;;;;;;33.06;28.37;101368.56;4969095;28;20662;-66
2023/06/13 10:25:54;;;;;;;9.65;4.30;;;;;;;33.16;28.43;101373.16;4964103;28;20133;-66
2023/06/13 10:28:44;;;;;;;9.90;4.78;;;;;;;33.26;29.09;101371.13;4966571;28;20046;-67
2023/06/13 10:31:37;;;;;;;6.90;3.92;;;;;;;33.22;28.63;101367.38;4963771;28;20507;-67
2023/06/13 10:34:44;;;;;;;7.00;4.30;;;;;;;33.40;27.97;101359.59;4951576;28;20149;-67
2023/06/13 10:37:30;;;;;;;6.78;4.20;;;;;;;33.51;27.92;101366.53;4958616;28;20047;-66
2023/06/13 10:40:42;;;;;;;5.68;3.97;;;;;;;33.65;29.13;101369.41;4967077;28;20137;-70
2023/06/13 10:43:19;;;;;;;5.60;4.40;;;;;;;33.60;27.86;101364.00;4942866;28;20685;-66
2023/06/13 10:45:48;;;;;;;5.78;4.32;;;;;;;33.64;27.79;101359.66;4973070;28;20050;-66
2023/06/13 10:48:14;;;;;;;6.40;4.57;;;;;;;33.72;27.84;101350.06;4964241;28;20106;-67
2023/06/13 10:50:43;;;;;;;6.78;4.38;;;;;;;33.83;27.92;101348.81;4962003;28;20050;-67
2023/06/13 10:53:33;;;;;;;6.55;4.43;;;;;;;33.88;27.77;101348.75;4966583;28;20435;-66
2023/06/13 10:56:01;;;;;;;5.63;4.55;;;;;;;33.77;27.80;101352.69;4970286;28;20055;-66
2023/06/13 10:58:29;;;;;;;8.45;5.47;;;;;;;33.87;27.77;101358.00;4950970;28;20121;-68
2023/06/13 11:00:56;;;;;;;9.48;5.00;;;;;;;33.93;27.78;101350.59;4978498;28;20051;-69
2023/06/13 11:03:32;;;;;;;7.60;5.03;;;;;;;34.01;27.17;101337.16;4961438;28;20057;-68
2023/06/13 11:06:06;;;;;;;7.75;4.75;;;;;;;34.15;27.49;101331.03;4955533;28;20057;-67
2023/06/13 11:08:42;;;;;;;7.43;4.05;;;;;;;34.19;27.46;101326.63;4955722;28;20533;-67
2023/06/13 11:11:09;;;;;;;7.55;4.60;;;;;;;34.12;26.63;101317.97;4972305;28;20051;-66
2023/06/13 11:13:36;;;;;;;7.72;4.65;;;;;;;34.22;26.75;101313.19;4961641;28;20138;-68
2023/06/13 11:16:34;;;;;;;10.50;4.75;;;;;;;34.42;28.88;101325.72;4968709;28;20074;-67
2023/06/13 11:19:06;;;;;;;11.13;4.47;;;;;;;34.50;26.74;101326.97;4972271;28;20062;-67
2023/06/13 11:21:33;;;;;;;5.38;4.45;;;;;;;34.51;27.41;101323.13;4970755;28;20181;-66
2023/06/13 11:23:59;;;;;;;5.57;4.40;;;;;;;34.65;26.68;101325.91;4971780;28;20057;-68
2023/06/13 11:26:26;;;;;;;8.82;4.78;;;;;;;34.68;27.03;101325.34;4965534;28;20720;-67
2023/06/13 11:28:53;;;;;;;8.65;4.53;;;;;;;34.77;28.20;101320.81;4970739;28;20075;-66
2023/06/13 11:31:20;;;;;;;7.53;4.32;;;;;;;34.88;26.88;101324.19;4976551;28;20184;-66
2023/06/13 11:33:56;;;;;;;6.75;4.13;;;;;;;35.04;28.02;101314.63;4962293;28;20467;-68